AUA24 EDDM-LOWI
Flight info
| Callsign | AUA24 |
|---|---|
| Flight time | 0h 22m |
| Altitude | 15000 |
| Route | TURBU7S TURBU Y107 RTT RTT1B |
| Aircraft | DH8D/M-SDE2E3FGRY/H |
Departure
| Time | 2026-05-07 12:02 |
|---|---|
| Airport | Munich Airport (EDDM) |
Arrival
| Time | 2026-05-07 12:24 |
|---|---|
| Airport | Innsbruck Airport (LOWI) |
| Time | Latitude | Longitude | Altitude | Speed | Heading |
|---|---|---|---|---|---|
| 2026-05-07 11:37 | 48.35587 | 11.79997 | 1472 ft | 0 kts | 263° |
| 2026-05-07 11:50 | 48.35588 | 11.80007 | 1472 ft | 2 kts | 264° |
| 2026-05-07 11:51 | 48.35589 | 11.80028 | 1471 ft | 1 kts | 263° |
| 2026-05-07 11:51 | 48.35591 | 11.80041 | 1471 ft | 2 kts | 252° |
| 2026-05-07 11:51 | 48.35598 | 11.80060 | 1471 ft | 2 kts | 222° |
| 2026-05-07 11:51 | 48.35611 | 11.80071 | 1471 ft | 2 kts | 195° |
| 2026-05-07 11:52 | 48.35622 | 11.80072 | 1471 ft | 1 kts | 172° |
| 2026-05-07 11:52 | 48.35624 | 11.80072 | 1471 ft | 0 kts | 172° |
| 2026-05-07 11:54 | 48.35615 | 11.80074 | 1471 ft | 1 kts | 173° |
| 2026-05-07 11:55 | 48.35599 | 11.80077 | 1471 ft | 2 kts | 174° |
| 2026-05-07 11:55 | 48.35578 | 11.80080 | 1471 ft | 3 kts | 175° |
| 2026-05-07 11:55 | 48.35560 | 11.80083 | 1471 ft | 2 kts | 175° |
| 2026-05-07 11:55 | 48.35537 | 11.80086 | 1472 ft | 4 kts | 175° |
| 2026-05-07 11:56 | 48.35511 | 11.80089 | 1472 ft | 4 kts | 172° |
| 2026-05-07 11:56 | 48.35477 | 11.80096 | 1472 ft | 9 kts | 172° |
| 2026-05-07 11:56 | 48.35395 | 11.80116 | 1473 ft | 14 kts | 170° |
| 2026-05-07 11:56 | 48.35302 | 11.80136 | 1473 ft | 14 kts | 173° |
| 2026-05-07 11:57 | 48.35215 | 11.80148 | 1474 ft | 12 kts | 177° |
| 2026-05-07 11:57 | 48.35160 | 11.80091 | 1474 ft | 10 kts | 262° |
| 2026-05-07 11:57 | 48.35154 | 11.80011 | 1474 ft | 6 kts | 264° |
| 2026-05-07 11:57 | 48.35151 | 11.79961 | 1475 ft | 4 kts | 264° |
| 2026-05-07 11:58 | 48.35143 | 11.79858 | 1475 ft | 15 kts | 264° |
| 2026-05-07 11:58 | 48.35131 | 11.79727 | 1475 ft | 11 kts | 260° |
| 2026-05-07 11:58 | 48.35098 | 11.79660 | 1476 ft | 7 kts | 205° |
| 2026-05-07 11:58 | 48.35047 | 11.79659 | 1476 ft | 12 kts | 173° |
| 2026-05-07 11:59 | 48.34931 | 11.79678 | 1476 ft | 17 kts | 174° |
| 2026-05-07 11:59 | 48.34820 | 11.79694 | 1476 ft | 14 kts | 173° |
| 2026-05-07 11:59 | 48.34728 | 11.79706 | 1477 ft | 12 kts | 188° |
| 2026-05-07 11:59 | 48.34672 | 11.79642 | 1477 ft | 8 kts | 233° |
| 2026-05-07 12:00 | 48.34642 | 11.79581 | 1477 ft | 6 kts | 232° |
| 2026-05-07 12:00 | 48.34618 | 11.79533 | 1477 ft | 5 kts | 233° |
| 2026-05-07 12:00 | 48.34586 | 11.79466 | 1478 ft | 9 kts | 235° |
| 2026-05-07 12:00 | 48.34541 | 11.79376 | 1478 ft | 12 kts | 234° |
| 2026-05-07 12:01 | 48.34483 | 11.79259 | 1479 ft | 15 kts | 232° |
| 2026-05-07 12:01 | 48.34415 | 11.79122 | 1480 ft | 16 kts | 235° |
| 2026-05-07 12:01 | 48.34362 | 11.78960 | 1480 ft | 17 kts | 259° |
| 2026-05-07 12:01 | 48.34342 | 11.78654 | 1482 ft | 59 kts | 267° |
| 2026-05-07 12:02 | 48.34259 | 11.77574 | 1486 ft | 141 kts | 264° |
| 2026-05-07 12:02 | 48.34114 | 11.75930 | 1666 ft | 176 kts | 264° |
| 2026-05-07 12:02 | 48.33905 | 11.74025 | 2278 ft | 190 kts | 263° |
| 2026-05-07 12:02 | 48.33672 | 11.72004 | 2755 ft | 211 kts | 262° |
| 2026-05-07 12:03 | 48.33373 | 11.69735 | 3179 ft | 229 kts | 261° |
| 2026-05-07 12:03 | 48.32992 | 11.67370 | 3630 ft | 242 kts | 252° |
| 2026-05-07 12:03 | 48.32033 | 11.65296 | 4095 ft | 239 kts | 222° |
| 2026-05-07 12:03 | 48.30513 | 11.64568 | 4547 ft | 230 kts | 180° |
| 2026-05-07 12:04 | 48.29099 | 11.65435 | 5009 ft | 218 kts | 146° |
| 2026-05-07 12:04 | 48.27982 | 11.66834 | 5420 ft | 206 kts | 143° |
| 2026-05-07 12:04 | 48.26948 | 11.68216 | 5765 ft | 195 kts | 141° |
| 2026-05-07 12:04 | 48.25969 | 11.69577 | 6103 ft | 184 kts | 141° |
| 2026-05-07 12:05 | 48.25070 | 11.70863 | 6389 ft | 176 kts | 141° |
| 2026-05-07 12:05 | 48.24145 | 11.72189 | 6712 ft | 197 kts | 141° |
| 2026-05-07 12:05 | 48.23107 | 11.73704 | 7087 ft | 219 kts | 139° |
| 2026-05-07 12:05 | 48.22013 | 11.75371 | 7576 ft | 232 kts | 138° |
| 2026-05-07 12:06 | 48.20868 | 11.77146 | 8103 ft | 243 kts | 138° |
| 2026-05-07 12:06 | 48.19667 | 11.79024 | 8627 ft | 254 kts | 138° |
| 2026-05-07 12:06 | 48.18435 | 11.80923 | 9118 ft | 262 kts | 141° |
| 2026-05-07 12:06 | 48.16861 | 11.82283 | 9586 ft | 261 kts | 165° |
| 2026-05-07 12:07 | 48.15125 | 11.83138 | 10063 ft | 268 kts | 166° |
| 2026-05-07 12:07 | 48.13325 | 11.84013 | 10530 ft | 275 kts | 166° |
| 2026-05-07 12:07 | 48.11496 | 11.84902 | 10988 ft | 280 kts | 166° |
| 2026-05-07 12:07 | 48.09611 | 11.85825 | 11457 ft | 284 kts | 166° |
| 2026-05-07 12:08 | 48.07707 | 11.86761 | 11912 ft | 286 kts | 166° |
| 2026-05-07 12:08 | 48.05799 | 11.87702 | 12366 ft | 288 kts | 166° |
| 2026-05-07 12:08 | 48.03878 | 11.88651 | 12809 ft | 290 kts | 166° |
| 2026-05-07 12:08 | 48.01929 | 11.89611 | 12955 ft | 301 kts | 166° |
| 2026-05-07 12:09 | 47.99880 | 11.90619 | 13007 ft | 313 kts | 166° |
| 2026-05-07 12:09 | 47.97789 | 11.91649 | 13011 ft | 324 kts | 165° |
| 2026-05-07 12:09 | 47.95673 | 11.92701 | 12983 ft | 316 kts | 165° |
| 2026-05-07 12:09 | 47.93605 | 11.93735 | 12964 ft | 310 kts | 165° |
| 2026-05-07 12:10 | 47.91563 | 11.94673 | 12980 ft | 302 kts | 171° |
| 2026-05-07 12:10 | 47.89523 | 11.94880 | 12992 ft | 293 kts | 184° |
| 2026-05-07 12:10 | 47.87496 | 11.94836 | 12961 ft | 289 kts | 184° |
| 2026-05-07 12:10 | 47.85482 | 11.94786 | 12964 ft | 287 kts | 184° |
| 2026-05-07 12:11 | 47.83502 | 11.94736 | 12970 ft | 285 kts | 184° |
| 2026-05-07 12:11 | 47.81510 | 11.94688 | 12974 ft | 284 kts | 184° |
| 2026-05-07 12:11 | 47.79553 | 11.94643 | 12984 ft | 283 kts | 184° |
| 2026-05-07 12:11 | 47.77595 | 11.94601 | 12997 ft | 282 kts | 184° |
| 2026-05-07 12:12 | 47.75632 | 11.94560 | 12993 ft | 282 kts | 184° |
| 2026-05-07 12:12 | 47.73668 | 11.94520 | 12990 ft | 281 kts | 184° |
| 2026-05-07 12:12 | 47.71729 | 11.94473 | 12993 ft | 280 kts | 184° |
| 2026-05-07 12:12 | 47.69783 | 11.94418 | 12985 ft | 279 kts | 184° |
| 2026-05-07 12:13 | 47.67819 | 11.94385 | 12987 ft | 279 kts | 183° |
| 2026-05-07 12:13 | 47.65886 | 11.94357 | 12995 ft | 278 kts | 183° |
| 2026-05-07 12:13 | 47.63962 | 11.94328 | 12992 ft | 278 kts | 183° |
| 2026-05-07 12:13 | 47.62027 | 11.94297 | 12986 ft | 277 kts | 183° |
| 2026-05-07 12:14 | 47.60086 | 11.94266 | 12986 ft | 277 kts | 183° |
| 2026-05-07 12:14 | 47.58167 | 11.94234 | 13017 ft | 277 kts | 184° |
| 2026-05-07 12:14 | 47.56239 | 11.94202 | 12996 ft | 278 kts | 183° |
| 2026-05-07 12:14 | 47.54301 | 11.94169 | 12983 ft | 278 kts | 183° |
| 2026-05-07 12:15 | 47.52364 | 11.94136 | 12987 ft | 277 kts | 183° |
| 2026-05-07 12:15 | 47.50422 | 11.94103 | 13005 ft | 277 kts | 183° |
| 2026-05-07 12:15 | 47.48489 | 11.94070 | 12995 ft | 277 kts | 183° |
| 2026-05-07 12:15 | 47.46555 | 11.94037 | 12991 ft | 278 kts | 182° |
| 2026-05-07 12:16 | 47.44611 | 11.94003 | 13003 ft | 276 kts | 182° |
| 2026-05-07 12:16 | 47.42696 | 11.93595 | 12744 ft | 282 kts | 202° |
| 2026-05-07 12:16 | 47.40940 | 11.92207 | 12374 ft | 288 kts | 212° |
| 2026-05-07 12:16 | 47.39259 | 11.90712 | 11890 ft | 279 kts | 212° |
| 2026-05-07 12:17 | 47.37627 | 11.89256 | 11416 ft | 269 kts | 213° |
| 2026-05-07 12:17 | 47.36057 | 11.87857 | 10982 ft | 260 kts | 213° |
| 2026-05-07 12:17 | 47.34520 | 11.86492 | 10552 ft | 253 kts | 212° |
| 2026-05-07 12:17 | 47.33169 | 11.84912 | 10090 ft | 244 kts | 235° |
| 2026-05-07 12:18 | 47.32578 | 11.82672 | 9750 ft | 230 kts | 260° |
| 2026-05-07 12:18 | 47.32284 | 11.80422 | 9386 ft | 223 kts | 261° |
| 2026-05-07 12:18 | 47.32000 | 11.78194 | 9017 ft | 216 kts | 261° |
| 2026-05-07 12:18 | 47.31727 | 11.76075 | 8669 ft | 209 kts | 259° |
| 2026-05-07 12:19 | 47.31459 | 11.74025 | 8320 ft | 202 kts | 259° |
| 2026-05-07 12:19 | 47.31195 | 11.72033 | 7980 ft | 193 kts | 259° |
| 2026-05-07 12:19 | 47.30941 | 11.70151 | 7671 ft | 183 kts | 259° |
| 2026-05-07 12:19 | 47.30695 | 11.68364 | 7405 ft | 170 kts | 259° |
| 2026-05-07 12:20 | 47.30473 | 11.66707 | 7127 ft | 163 kts | 259° |
| 2026-05-07 12:20 | 47.30258 | 11.65066 | 6862 ft | 162 kts | 259° |
| 2026-05-07 12:20 | 47.30059 | 11.63452 | 6589 ft | 162 kts | 262° |
| 2026-05-07 12:20 | 47.29871 | 11.61811 | 6309 ft | 162 kts | 262° |
| 2026-05-07 12:21 | 47.29651 | 11.60189 | 6017 ft | 163 kts | 261° |
| 2026-05-07 12:21 | 47.29418 | 11.58566 | 5727 ft | 163 kts | 260° |
| 2026-05-07 12:21 | 47.29184 | 11.56930 | 5458 ft | 165 kts | 260° |
| 2026-05-07 12:21 | 47.28945 | 11.55232 | 5251 ft | 175 kts | 260° |
| 2026-05-07 12:22 | 47.28682 | 11.53379 | 4999 ft | 190 kts | 259° |
| 2026-05-07 12:22 | 47.28398 | 11.51400 | 4682 ft | 208 kts | 259° |
| 2026-05-07 12:22 | 47.28102 | 11.49245 | 4320 ft | 225 kts | 263° |
| 2026-05-07 12:22 | 47.27898 | 11.46921 | 3919 ft | 231 kts | 263° |
| 2026-05-07 12:23 | 47.27574 | 11.44621 | 3597 ft | 228 kts | 255° |
| 2026-05-07 12:23 | 47.27071 | 11.42539 | 3785 ft | 204 kts | 253° |
| 2026-05-07 12:23 | 47.26692 | 11.40624 | 3443 ft | 192 kts | 260° |
| 2026-05-07 12:23 | 47.26444 | 11.38707 | 2915 ft | 190 kts | 268° |
| 2026-05-07 12:24 | 47.26294 | 11.36807 | 2333 ft | 190 kts | 266° |
| 2026-05-07 12:24 | 47.26074 | 11.34892 | 1928 ft | 180 kts | 262° |
| 2026-05-07 12:24 | 47.25918 | 11.33469 | 1940 ft | 68 kts | 260° |
| 2026-05-07 12:24 | 47.25884 | 11.33200 | 1938 ft | 18 kts | 220° |
| 2026-05-07 12:25 | 47.25871 | 11.33142 | 1937 ft | 10 kts | 38° |
| 2026-05-07 12:25 | 47.25893 | 11.33213 | 1938 ft | 6 kts | 75° |
| 2026-05-07 12:25 | 47.25900 | 11.33265 | 1939 ft | 5 kts | 80° |
| 2026-05-07 12:25 | 47.25913 | 11.33377 | 1940 ft | 22 kts | 80° |
| 2026-05-07 12:26 | 47.25931 | 11.33628 | 1937 ft | 23 kts | 105° |
| 2026-05-07 12:26 | 47.25840 | 11.33818 | 1931 ft | 21 kts | 124° |
| 2026-05-07 12:26 | 47.25774 | 11.33981 | 1926 ft | 13 kts | 107° |
| 2026-05-07 12:26 | 47.25774 | 11.34122 | 1923 ft | 14 kts | 83° |
| 2026-05-07 12:27 | 47.25791 | 11.34265 | 1920 ft | 14 kts | 79° |
| 2026-05-07 12:27 | 47.25807 | 11.34405 | 1918 ft | 13 kts | 80° |
| 2026-05-07 12:27 | 47.25822 | 11.34528 | 1918 ft | 11 kts | 79° |
| 2026-05-07 12:27 | 47.25834 | 11.34648 | 1916 ft | 12 kts | 82° |
| 2026-05-07 12:28 | 47.25845 | 11.34764 | 1915 ft | 9 kts | 82° |
| 2026-05-07 12:28 | 47.25843 | 11.34786 | 1915 ft | 1 kts | 104° |
| 2026-05-07 12:28 | 47.25837 | 11.34802 | 1915 ft | 1 kts | 139° |
| 2026-05-07 12:28 | 47.25822 | 11.34806 | 1915 ft | 2 kts | 178° |
| 2026-05-07 12:29 | 47.25802 | 11.34806 | 1915 ft | 2 kts | 171° |
| 2026-05-07 12:29 | 47.25798 | 11.34807 | 1915 ft | 0 kts | 171° |